Time;durP1;ratioP1;P1;durP2;ratioP2;P2;SDS_P1;SDS_P2;PMS_P1;PMS_P2;Temp;Humidity;BMP_temperature;BMP_pressure;BME280_temperature;BME280_humidity;BME280_pressure;Samples;Min_cycle;Max_cycle;Signal;HPM_P1;HPM_P2
2023/05/05 00:00:54;;;;;;;8.30;4.67;;;14.00;70.50;;;;;;21249285;27;20703;-71
2023/05/05 00:10:56;;;;;;;9.83;4.50;;;;;;;;;;21248184;27;20205;-71
2023/05/05 00:20:59;;;;;;;8.90;4.43;;;;;;;;;;21246922;28;20634;-70
2023/05/05 00:31:01;;;;;;;7.60;4.80;;;;;;;;;;21247812;28;20209;-71
2023/05/05 00:41:04;;;;;;;5.97;4.30;;;;;;;;;;21260605;27;20241;-71
2023/05/05 00:51:08;;;;;;;9.17;4.53;;;;;;;;;;21263995;27;20233;-72
2023/05/05 01:01:11;;;;;;;6.30;4.60;;;;;;;;;;21263836;27;20237;-72
2023/05/05 01:11:17;;;;;;;6.37;4.93;;;;;;;;;;21262681;27;20210;-72
2023/05/05 01:21:22;;;;;;;5.57;4.60;;;;;;;;;;21244196;27;20237;-72
2023/05/05 01:31:33;;;;;;;7.60;4.00;;;;;;;;;;21261128;27;20208;-72
2023/05/05 01:41:46;;;;;;;7.77;4.70;;;;;;;;;;21259586;27;20250;-71
2023/05/05 01:51:49;;;;;;;5.93;4.63;;;;;;;;;;21257933;27;20233;-71
2023/05/05 02:01:51;;;;;;;9.00;4.60;;;;;;;;;;21258626;27;20267;-72
2023/05/05 02:11:55;;;;;;;9.23;4.53;;;13.60;72.60;;;;;;21257431;27;20209;-72
2023/05/05 02:21:57;;;;;;;11.63;4.83;;;13.20;78.00;;;;;;21256794;27;20237;-71
2023/05/05 02:32:08;;;;;;;7.53;4.97;;;13.30;78.30;;;;;;21256337;27;20215;-72
2023/05/05 02:42:14;;;;;;;7.90;5.00;;;13.10;77.90;;;;;;21254919;27;20240;-72
2023/05/05 02:52:16;;;;;;;10.63;5.23;;;13.20;78.70;;;;;;21254112;27;20240;-72
2023/05/05 03:02:54;;;;;;;7.57;5.67;;;13.00;79.10;;;;;;21253997;27;20243;-71
2023/05/05 03:12:58;;;;;;;8.60;4.23;;;13.00;79.60;;;;;;21253181;27;20222;-72
2023/05/05 03:23:01;;;;;;;6.00;4.50;;;12.90;80.40;;;;;;21251584;27;20237;-72
2023/05/05 03:33:03;;;;;;;8.87;4.80;;;12.80;81.40;;;;;;21251907;27;20201;-72
2023/05/05 03:43:04;;;;;;;7.67;4.40;;;12.60;82.30;;;;;;21250790;27;20231;-72
2023/05/05 03:53:06;;;;;;;7.63;4.43;;;12.50;82.70;;;;;;21249731;27;20286;-72
2023/05/05 04:03:08;;;;;;;8.67;5.17;;;12.50;82.80;;;;;;21249966;27;20312;-72
2023/05/05 04:13:10;;;;;;;8.27;5.47;;;12.40;82.70;;;;;;21247893;27;20681;-72
2023/05/05 04:23:12;;;;;;;7.70;5.40;;;12.40;83.80;;;;;;21248012;28;20321;-72
2023/05/05 04:33:14;;;;;;;12.17;5.73;;;12.40;84.10;;;;;;21249488;28;20208;-72
2023/05/05 04:43:15;;;;;;;12.47;5.40;;;12.30;84.70;;;;;;21248664;28;20235;-71
2023/05/05 04:53:17;;;;;;;12.07;5.47;;;12.30;85.30;;;;;;21249276;28;20642;-72
2023/05/05 05:03:19;;;;;;;19.43;6.20;;;12.40;85.30;;;;;;21246750;28;20228;-72
2023/05/05 05:13:21;;;;;;;10.37;5.50;;;12.60;85.50;;;;;;21244052;28;20632;-72
2023/05/05 05:23:22;;;;;;;15.53;5.80;;;13.20;85.10;;;;;;21253163;27;20230;-72
2023/05/05 05:33:24;;;;;;;43.77;8.53;;;13.40;84.60;;;;;;21261259;27;20232;-72
2023/05/05 05:43:26;;;;;;;25.83;12.63;;;13.60;84.80;;;;;;21260513;27;20637;-72
2023/05/05 05:53:28;;;;;;;33.97;26.13;;;13.90;84.30;;;;;;21258540;27;20283;-72
2023/05/05 06:03:30;;;;;;;17.13;9.63;;;14.10;83.60;;;;;;21258231;27;20241;-70
2023/05/05 06:13:31;;;;;;;17.20;7.90;;;14.30;82.80;;;;;;21257489;27;20324;-71
2023/05/05 06:23:33;;;;;;;18.93;9.63;;;14.70;81.30;;;;;;21256038;27;20275;-70
2023/05/05 06:33:35;;;;;;;35.63;19.53;;;14.90;81.10;;;;;;21236403;27;20613;-71
2023/05/05 06:43:36;;;;;;;20.80;11.60;;;15.20;79.80;;;;;;21254677;27;20237;-72
2023/05/05 06:53:38;;;;;;;16.93;9.10;;;15.40;78.30;;;;;;21253574;27;20703;-72
2023/05/05 07:03:40;;;;;;;17.47;8.93;;;15.80;77.20;;;;;;21252651;27;20229;-71
2023/05/05 07:13:42;;;;;;;59.27;29.10;;;16.30;75.90;;;;;;21252420;27;20288;-72
2023/05/05 07:23:46;;;;;;;30.90;13.17;;;16.30;74.80;;;;;;21250830;27;20258;-72
2023/05/05 07:33:48;;;;;;;28.87;12.50;;;16.60;74.30;;;;;;21250373;27;20215;-72
2023/05/05 07:43:50;;;;;;;45.93;20.57;;;17.00;73.60;;;;;;21248908;27;20701;-72
2023/05/05 07:53:52;;;;;;;134.77;67.90;;;17.60;72.80;;;;;;21248342;27;20284;-72
2023/05/05 08:03:53;;;;;;;33.90;14.83;;;17.80;71.70;;;;;;21247979;27;20655;-72
2023/05/05 08:13:55;;;;;;;17.03;9.30;;;18.00;71.10;;;;;;21248585;27;20216;-71
2023/05/05 08:23:57;;;;;;;19.77;7.80;;;18.20;70.60;;;;;;21247638;27;20212;-72
2023/05/05 08:33:59;;;;;;;15.00;7.13;;;18.60;70.20;;;;;;21248497;28;20295;-72
2023/05/05 08:44:00;;;;;;;15.80;6.97;;;18.90;69.10;;;;;;21205014;28;20930;-74
2023/05/05 08:54:05;;;;;;;41.57;25.20;;;19.30;68.50;;;;;;21199979;28;20256;-72
2023/05/05 09:04:08;;;;;;;21.77;7.40;;;19.80;66.70;;;;;;21220109;27;20210;-72
2023/05/05 09:14:10;;;;;;;16.87;5.47;;;20.00;67.10;;;;;;21203707;27;20676;-72
2023/05/05 09:24:14;;;;;;;12.93;5.40;;;20.50;66.70;;;;;;21215805;27;20202;-73
2023/05/05 09:34:16;;;;;;;15.37;4.60;;;20.40;67.30;;;;;;21215680;27;20210;-70
2023/05/05 09:44:33;;;;;;;20.17;5.23;;;20.70;68.20;;;;;;21217677;27;20233;-72
2023/05/05 09:54:34;;;;;;;8.37;4.40;;;20.80;68.20;;;;;;21218187;27;20239;-72
2023/05/05 10:04:36;;;;;;;8.93;4.40;;;21.00;68.20;;;;;;21211435;27;20202;-72
2023/05/05 10:14:38;;;;;;;13.20;4.43;;;21.20;68.20;;;;;;21210875;27;20685;-71
2023/05/05 10:24:55;;;;;;;5.70;4.20;;;21.40;67.90;;;;;;21214001;27;20296;-72
2023/05/05 10:35:00;;;;;;;5.17;3.53;;;21.60;68.00;;;;;;21211744;27;20238;-72
2023/05/05 10:45:02;;;;;;;10.63;3.80;;;22.10;67.00;;;;;;21205971;27;20270;-67
2023/05/05 10:55:16;;;;;;;7.27;2.90;;;22.50;65.50;;;;;;21209856;27;20320;-67
2023/05/05 11:05:21;;;;;;;7.80;3.27;;;22.80;64.10;;;;;;21206420;27;20213;-77
2023/05/05 11:15:28;;;;;;;5.47;3.10;;;22.90;62.90;;;;;;21209329;27;20684;-73
2023/05/05 11:25:37;;;;;;;7.17;2.80;;;23.00;60.90;;;;;;21212120;27;20210;-70
2023/05/05 11:36:08;;;;;;;4.07;2.70;;;23.20;60.80;;;;;;21165229;28;20320;-73
2023/05/05 11:46:14;;;;;;;5.20;2.43;;;23.60;61.20;;;;;;21169534;28;20233;-70
2023/05/05 11:56:18;;;;;;;5.00;2.73;;;23.40;60.40;;;;;;21154695;28;20248;-74
2023/05/05 12:06:20;;;;;;;8.47;6.50;;;23.60;59.90;;;;;;21163660;28;20206;-69
2023/05/05 12:16:21;;;;;;;5.03;3.40;;;23.70;60.00;;;;;;21160843;28;20233;-64
2023/05/05 12:26:29;;;;;;;8.30;3.20;;;23.80;59.70;;;;;;21161170;28;20202;-65
2023/05/05 12:36:32;;;;;;;6.60;3.20;;;24.00;59.60;;;;;;21173190;28;20229;-66
2023/05/05 12:46:44;;;;;;;8.47;2.93;;;24.20;60.00;;;;;;21178525;28;20206;-68
2023/05/05 12:56:47;;;;;;;3.03;2.80;;;24.50;59.60;;;;;;21177240;28;20240;-69
2023/05/05 13:07:06;;;;;;;3.50;2.23;;;24.80;57.00;;;;;;21178139;27;20272;-68
2023/05/05 13:17:12;;;;;;;11.37;2.83;;;25.00;55.70;;;;;;21245686;27;20585;-70
2023/05/05 13:27:14;;;;;;;5.90;2.70;;;25.00;54.50;;;;;;21259755;27;20201;-69
2023/05/05 13:37:15;;;;;;;3.57;2.30;;;25.40;53.90;;;;;;21258971;27;20634;-68
2023/05/05 13:47:17;;;;;;;7.13;2.13;;;25.60;54.30;;;;;;21257852;27;20225;-71
2023/05/05 13:57:19;;;;;;;6.13;2.00;;;25.40;54.60;;;;;;21225820;27;20234;-68
2023/05/05 14:07:21;;;;;;;7.27;1.80;;;25.40;54.70;;;;;;21171644;28;20220;-69
2023/05/05 14:17:23;;;;;;;9.50;1.77;;;25.30;53.90;;;;;;21194900;27;20240;-71
2023/05/05 14:27:24;;;;;;;4.57;1.83;;;25.40;53.60;;;;;;21256110;27;20683;-71
2023/05/05 14:37:26;;;;;;;2.37;1.90;;;25.30;54.20;;;;;;21253412;27;20228;-72
2023/05/05 14:47:28;;;;;;;3.00;2.10;;;24.90;55.10;;;;;;21254223;27;20240;-71
2023/05/05 14:57:30;;;;;;;5.53;1.90;;;24.70;55.50;;;;;;21253553;27;20233;-70
2023/05/05 15:07:31;;;;;;;6.33;2.03;;;24.60;55.40;;;;;;21234519;27;20557;-71
2023/05/05 15:17:34;;;;;;;3.25;1.60;;;24.80;55.50;;;;;;21251779;27;20285;-72
2023/05/05 15:27:36;;;;;;;5.68;2.05;;;26.50;53.40;;;;;;21252261;27;20656;-71
2023/05/05 15:37:38;;;;;;;4.68;1.67;;;27.10;52.70;;;;;;21251850;27;20237;-72
2023/05/05 15:47:40;;;;;;;2.63;1.83;;;27.60;51.20;;;;;;21251125;27;20232;-65
2023/05/05 15:57:43;;;;;;;4.47;2.40;;;28.00;49.50;;;;;;21249468;27;20236;-67
2023/05/05 16:07:44;;;;;;;3.63;2.30;;;26.40;51.10;;;;;;21214814;27;20676;-71
2023/05/05 16:17:46;;;;;;;3.73;2.30;;;25.10;53.30;;;;;;21162880;28;20238;-72
2023/05/05 16:27:48;;;;;;;13.10;2.43;;;24.00;55.50;;;;;;21163546;28;20201;-72
2023/05/05 16:37:51;;;;;;;7.20;1.87;;;23.00;53.00;;;;;;21162651;28;20685;-71
2023/05/05 16:47:54;;;;;;;2.97;1.70;;;22.30;54.60;;;;;;21144080;28;20723;-73
2023/05/05 16:57:56;;;;;;;2.70;1.60;;;21.80;55.40;;;;;;21163621;28;20229;-68
2023/05/05 17:07:57;;;;;;;2.60;1.67;;;21.40;55.70;;;;;;21161512;28;20251;-68
2023/05/05 17:17:59;;;;;;;5.90;1.57;;;21.20;56.40;;;;;;21207108;27;20270;-67
2023/05/05 17:28:01;;;;;;;2.77;1.70;;;20.80;57.80;;;;;;21260319;27;20196;-70
2023/05/05 17:38:03;;;;;;;4.43;2.00;;;20.80;58.40;;;;;;21261545;27;20233;-71
2023/05/05 17:48:05;;;;;;;9.67;1.90;;;20.60;59.10;;;;;;21259146;27;20634;-70
2023/05/05 17:58:06;;;;;;;3.60;1.90;;;20.40;64.50;;;;;;21260638;27;20236;-72
2023/05/05 18:08:08;;;;;;;11.00;1.90;;;19.90;68.90;;;;;;21228886;27;20221;-68
2023/05/05 18:18:10;;;;;;;3.73;1.90;;;19.40;74.20;;;;;;21173935;28;20240;-70
2023/05/05 18:28:12;;;;;;;5.50;2.10;;;18.80;80.00;;;;;;21169158;28;20204;-72
2023/05/05 18:38:13;;;;;;;2.77;1.60;;;18.40;86.00;;;;;;21169888;28;20229;-71
2023/05/05 18:48:15;;;;;;;3.10;2.20;;;18.10;90.00;;;;;;21167858;28;20272;-71
2023/05/05 18:58:17;;;;;;;9.03;2.77;;;18.00;91.20;;;;;;21167430;28;20232;-72
2023/05/05 19:08:18;;;;;;;11.43;2.73;;;17.90;92.30;;;;;;21166266;28;20212;-72
2023/05/05 19:18:20;;;;;;;6.67;2.10;;;17.80;93.60;;;;;;21235344;27;20235;-71
2023/05/05 19:28:22;;;;;;;5.80;2.83;;;17.80;94.40;;;;;;21250838;27;20295;-71
2023/05/05 19:38:24;;;;;;;4.93;2.17;;;17.80;95.10;;;;;;21249399;27;20231;-71
2023/05/05 19:48:26;;;;;;;4.83;2.33;;;17.70;95.60;;;;;;21245691;27;20242;-72
2023/05/05 19:58:27;;;;;;;7.20;3.40;;;17.70;96.30;;;;;;21244474;27;20283;-72
2023/05/05 20:08:29;;;;;;;5.27;2.70;;;17.60;96.90;;;;;;21227997;27;20201;-76
2023/05/05 20:18:31;;;;;;;9.17;3.17;;;17.60;97.60;;;;;;21245439;27;20230;-72
2023/05/05 20:28:34;;;;;;;4.97;2.90;;;17.60;97.90;;;;;;21245539;27;20734;-72
2023/05/05 20:38:35;;;;;;;5.33;2.33;;;17.50;98.20;;;;;;21243463;28;20236;-72
2023/05/05 20:48:37;;;;;;;3.93;2.50;;;17.30;98.40;;;;;;21243547;28;20769;-72
2023/05/05 20:58:43;;;;;;;3.47;2.20;;;17.30;98.70;;;;;;21258960;27;20295;-72
2023/05/05 21:08:46;;;;;;;3.23;2.53;;;17.30;99.00;;;;;;21260700;27;20211;-73
2023/05/05 21:18:47;;;;;;;2.80;2.17;;;17.20;99.10;;;;;;21260087;27;20693;-71
2023/05/05 21:28:50;;;;;;;4.10;2.30;;;17.10;99.20;;;;;;21259603;27;20197;-72
2023/05/05 21:38:54;;;;;;;3.80;2.53;;;17.00;99.40;;;;;;21259540;27;20236;-72
2023/05/05 21:49:11;;;;;;;5.93;2.80;;;16.90;99.60;;;;;;21259952;27;20751;-71
2023/05/05 21:59:13;;;;;;;4.77;3.63;;;16.80;99.90;;;;;;21241515;27;20237;-71
2023/05/05 22:09:17;;;;;;;6.40;3.60;;;16.70;99.90;;;;;;21239009;27;20698;-71
2023/05/05 22:19:19;;;;;;;9.00;3.67;;;16.50;99.90;;;;;;21257384;27;20268;-71
2023/05/05 22:29:22;;;;;;;5.53;3.30;;;16.40;99.90;;;;;;21257269;27;20606;-72
2023/05/05 22:39:23;;;;;;;6.00;2.70;;;16.50;99.90;;;;;;21256200;27;20236;-71
2023/05/05 22:49:26;;;;;;;8.13;2.80;;;16.50;99.90;;;;;;21255319;27;20589;-71
2023/05/05 22:59:28;;;;;;;6.47;3.53;;;16.60;99.90;;;;;;21255403;27;20232;-71
2023/05/05 23:09:29;;;;;;;6.63;4.20;;;16.50;99.90;;;;;;21254459;27;20201;-71
2023/05/05 23:19:31;;;;;;;9.97;4.93;;;16.50;99.90;;;;;;21252954;27;20223;-71
2023/05/05 23:29:33;;;;;;;3.83;2.80;;;16.30;99.90;;;;;;21252129;27;20208;-71
2023/05/05 23:39:35;;;;;;;7.93;3.97;;;16.20;99.90;;;;;;21233540;27;20229;-71
2023/05/05 23:49:36;;;;;;;6.47;3.60;;;16.10;99.90;;;;;;21250437;27;20233;-71
2023/05/05 23:59:38;;;;;;;6.13;3.37;;;16.00;99.90;;;;;;21250296;27;20229;-72
